Terminal Aerodrome Forecast
Issued by NWS Norman, OK

Home | Current Version | Previous Version | Text Only | Print | Product List | Glossary On
Versions: 1 2 3 4 5 6 7 8 9 10 11 12 13 14 15 16 17
000
FTUS44 KOUN 162320
TAFOKC
TAF
KOKC 162320Z 1700/1724 17018G26KT P6SM SCT250
     FM170100 14009KT P6SM SCT120 BKN250
     FM171200 09006KT P6SM SCT025 BKN050 PROB30 1716/1719 5SM -RA
      BKN025 OVC050
     FM171900 03008KT 3SM -RA BKN015 OVC025=

USA.gov is the U.S. government's official web portal to all federal, state and local government web resources and services.